Time;durP1;ratioP1;P1;durP2;ratioP2;P2;SDS_P1;SDS_P2;PMS_P1;PMS_P2;Temp;Humidity;BMP_temperature;BMP_pressure;BME280_temperature;BME280_humidity;BME280_pressure;Samples;Min_cycle;Max_cycle;Signal;HPM_P1;HPM_P2
2023/06/26 00:02:18;;;;;;;2.30;2.10;;;23.00;99.90;;;;;;5099981;27;20200;-76
2023/06/26 00:04:45;;;;;;;2.00;1.77;;;22.90;99.90;;;;;;5099761;27;20227;-75
2023/06/26 00:07:12;;;;;;;2.20;2.00;;;23.00;99.90;;;;;;5099527;27;20303;-76
2023/06/26 00:09:39;;;;;;;2.10;2.00;;;23.00;99.90;;;;;;5101148;27;20285;-75
2023/06/26 00:12:08;;;;;;;2.30;2.10;;;23.00;99.90;;;;;;5099131;27;20204;-77
2023/06/26 00:14:35;;;;;;;2.50;2.30;;;23.10;99.90;;;;;;5098629;27;20213;-76
2023/06/26 00:17:02;;;;;;;2.33;2.13;;;23.00;99.90;;;;;;5099489;27;20221;-76
2023/06/26 00:19:29;;;;;;;2.42;2.22;;;23.00;99.90;;;;;;5102208;27;20285;-74
2023/06/26 00:21:56;;;;;;;2.83;2.30;;;23.00;99.90;;;;;;5100472;27;20288;-75
2023/06/26 00:24:23;;;;;;;2.47;2.28;;;23.00;99.90;;;;;;5104497;27;20263;-76
2023/06/26 00:26:50;;;;;;;2.33;2.13;;;22.90;99.90;;;;;;5101899;27;20212;-75
2023/06/26 00:29:18;;;;;;;2.78;2.40;;;22.80;99.90;;;;;;5102816;27;20220;-76
2023/06/26 00:31:45;;;;;;;2.40;2.20;;;22.60;99.90;;;;;;5104387;27;20256;-76
2023/06/26 00:34:12;;;;;;;2.20;2.10;;;22.40;99.90;;;;;;5102739;27;20246;-76
2023/06/26 00:36:43;;;;;;;2.42;2.20;;;22.40;99.90;;;;;;5104083;27;20197;-75
2023/06/26 00:39:10;;;;;;;2.55;2.35;;;22.30;99.90;;;;;;5100329;27;20316;-74
2023/06/26 00:41:37;;;;;;;2.40;2.20;;;22.40;99.90;;;;;;5098593;27;20213;-75
2023/06/26 00:44:04;;;;;;;2.67;2.47;;;22.50;99.90;;;;;;5102731;27;20696;-75
2023/06/26 00:46:33;;;;;;;2.35;2.25;;;22.50;99.90;;;;;;5103567;27;20282;-75
2023/06/26 00:49:03;;;;;;;2.58;2.38;;;22.50;99.90;;;;;;5099921;27;20868;-75
2023/06/26 00:51:31;;;;;;;2.60;2.10;;;22.50;99.90;;;;;;5105568;27;20197;-75
2023/06/26 00:53:59;;;;;;;2.63;2.42;;;22.30;99.90;;;;;;5105755;27;20206;-75
2023/06/26 00:56:26;;;;;;;2.13;1.92;;;22.30;99.90;;;;;;5101141;27;20274;-76
2023/06/26 00:58:53;;;;;;;2.25;2.13;;;22.20;99.90;;;;;;5105206;27;20256;-76
2023/06/26 01:01:21;;;;;;;3.08;2.22;;;22.20;99.90;;;;;;5106466;27;20198;-76
2023/06/26 01:03:52;;;;;;;2.50;2.30;;;22.20;99.90;;;;;;5102122;27;20201;-75
2023/06/26 01:06:20;;;;;;;3.42;2.40;;;22.10;99.90;;;;;;5105164;27;20225;-75
2023/06/26 01:08:48;;;;;;;2.15;2.03;;;22.10;99.90;;;;;;5102812;27;20288;-76
2023/06/26 01:11:16;;;;;;;2.60;2.40;;;22.10;99.90;;;;;;5108814;27;20258;-75
2023/06/26 01:13:44;;;;;;;2.58;2.38;;;22.10;99.90;;;;;;5103361;27;20292;-76
2023/06/26 01:16:12;;;;;;;2.28;2.08;;;22.00;99.90;;;;;;5102669;27;20289;-75
2023/06/26 01:18:42;;;;;;;2.47;2.28;;;22.00;99.90;;;;;;5099233;27;20200;-75
2023/06/26 01:21:14;;;;;;;2.63;2.42;;;22.00;99.90;;;;;;5106626;27;20197;-75
2023/06/26 01:24:04;;;;;;;3.08;1.98;;;22.10;99.90;;;;;;5104253;27;20282;-74
2023/06/26 01:26:35;;;;;;;2.03;1.92;;;22.20;99.90;;;;;;5101485;27;20221;-76
2023/06/26 01:29:05;;;;;;;2.42;2.22;;;22.10;99.90;;;;;;5101561;27;20231;-75
2023/06/26 01:31:32;;;;;;;2.55;2.35;;;22.20;99.90;;;;;;5098830;27;20260;-76
2023/06/26 01:34:00;;;;;;;2.60;2.40;;;22.20;99.90;;;;;;5104489;27;20199;-76
2023/06/26 01:36:27;;;;;;;2.60;2.40;;;22.20;99.90;;;;;;5100263;27;20296;-76
2023/06/26 01:38:54;;;;;;;2.33;2.13;;;22.20;99.90;;;;;;5109898;27;20242;-77
2023/06/26 01:41:21;;;;;;;2.45;2.25;;;22.20;99.90;;;;;;5121689;27;20227;-76
2023/06/26 01:44:03;;;;;;;2.25;2.05;;;22.20;99.90;;;;;;5099430;27;20193;-76
2023/06/26 01:46:39;;;;;;;2.53;2.33;;;22.20;99.90;;;;;;5100231;27;20221;-75
2023/06/26 01:49:11;;;;;;;2.33;2.13;;;22.20;99.90;;;;;;5100518;27;20216;-76
2023/06/26 01:51:44;;;;;;;2.92;2.13;;;22.10;99.90;;;;;;5118512;27;20826;-76
2023/06/26 01:54:14;;;;;;;2.33;2.13;;;22.00;99.90;;;;;;5124208;27;20196;-76
2023/06/26 01:56:42;;;;;;;3.55;2.10;;;21.90;99.90;;;;;;5117509;27;20192;-76
2023/06/26 01:59:14;;;;;;;2.53;2.30;;;21.90;99.90;;;;;;5104454;27;20217;-77
2023/06/26 02:01:41;;;;;;;2.45;2.25;;;21.80;99.90;;;;;;5096081;27;20230;-77
2023/06/26 02:04:08;;;;;;;2.53;2.33;;;21.80;99.90;;;;;;5099555;27;20196;-75
2023/06/26 02:06:35;;;;;;;2.42;2.22;;;21.80;99.90;;;;;;5098821;27;22161;-75
2023/06/26 02:09:03;;;;;;;2.42;2.22;;;21.80;99.90;;;;;;5098570;27;20244;-75
2023/06/26 02:11:30;;;;;;;2.65;2.13;;;21.80;99.90;;;;;;5096629;27;20212;-76
2023/06/26 02:13:57;;;;;;;2.50;2.30;;;21.80;99.90;;;;;;5097477;27;20201;-76
2023/06/26 02:16:25;;;;;;;2.72;2.53;;;21.90;99.90;;;;;;5098133;27;20224;-76
2023/06/26 02:18:52;;;;;;;2.80;2.60;;;21.90;99.90;;;;;;5102182;27;20223;-76
2023/06/26 02:21:19;;;;;;;2.80;2.60;;;21.90;99.90;;;;;;5095299;27;20208;-76
2023/06/26 02:23:46;;;;;;;2.40;2.20;;;21.90;99.90;;;;;;5092854;27;20854;-76
2023/06/26 02:26:13;;;;;;;2.75;2.55;;;21.90;99.90;;;;;;5096597;27;20224;-75
2023/06/26 02:28:40;;;;;;;2.60;2.40;;;21.90;99.90;;;;;;5096351;27;20687;-76
2023/06/26 02:31:07;;;;;;;2.75;2.30;;;21.90;99.90;;;;;;5100071;27;20319;-75
2023/06/26 02:33:35;;;;;;;2.50;2.30;;;22.00;99.90;;;;;;5102064;27;20290;-75
2023/06/26 02:36:02;;;;;;;2.60;2.40;;;22.00;99.90;;;;;;5094995;27;20273;-76
2023/06/26 02:38:29;;;;;;;2.60;2.40;;;22.00;99.90;;;;;;5097256;27;20228;-76
2023/06/26 02:40:56;;;;;;;2.95;2.75;;;22.10;99.90;;;;;;5100421;27;21019;-75
2023/06/26 02:43:23;;;;;;;2.80;2.60;;;22.10;99.90;;;;;;5097142;28;20298;-76
2023/06/26 02:45:50;;;;;;;3.10;2.50;;;22.10;99.90;;;;;;5095119;27;20682;-75
2023/06/26 02:48:16;;;;;;;2.72;2.53;;;22.10;99.90;;;;;;5096803;27;20282;-76
2023/06/26 02:50:46;;;;;;;2.50;2.30;;;22.20;99.90;;;;;;5095765;28;20255;-75
2023/06/26 02:53:13;;;;;;;2.70;2.47;;;22.10;99.90;;;;;;5101109;27;20221;-75
2023/06/26 02:55:40;;;;;;;2.63;2.42;;;22.10;99.90;;;;;;5103241;28;21931;-76
2023/06/26 02:58:07;;;;;;;2.78;2.58;;;22.20;99.90;;;;;;5095741;28;20196;-76
2023/06/26 03:00:34;;;;;;;2.60;2.40;;;22.10;99.90;;;;;;5098490;28;20918;-76
2023/06/26 03:03:01;;;;;;;2.53;2.33;;;22.10;99.90;;;;;;5103715;28;20192;-76
2023/06/26 03:05:28;;;;;;;3.20;2.80;;;22.00;99.90;;;;;;5095981;28;20189;-76
2023/06/26 03:07:56;;;;;;;3.05;2.85;;;22.00;99.90;;;;;;5094110;28;20890;-76
2023/06/26 03:10:23;;;;;;;2.45;2.25;;;21.90;99.90;;;;;;5097414;28;20273;-75
2023/06/26 03:12:50;;;;;;;2.60;2.40;;;21.90;99.90;;;;;;5095106;28;20204;-76
2023/06/26 03:15:19;;;;;;;2.75;2.55;;;21.90;99.90;;;;;;5099898;28;20293;-75
2023/06/26 03:17:46;;;;;;;2.50;2.30;;;21.80;99.90;;;;;;5099638;28;20197;-75
2023/06/26 03:20:13;;;;;;;2.70;2.50;;;21.80;99.90;;;;;;5094882;28;20273;-75
2023/06/26 03:22:39;;;;;;;2.75;2.55;;;21.80;99.90;;;;;;5101347;28;20200;-75
2023/06/26 03:25:08;;;;;;;2.40;2.20;;;21.80;99.90;;;;;;5103861;28;20291;-75
2023/06/26 03:27:35;;;;;;;2.33;2.13;;;21.70;99.90;;;;;;5097046;28;20209;-76
2023/06/26 03:30:02;;;;;;;4.93;2.30;;;21.70;99.90;;;;;;5098050;28;20308;-75
2023/06/26 03:32:29;;;;;;;2.58;2.38;;;21.60;99.90;;;;;;5104448;28;20233;-75
2023/06/26 03:34:56;;;;;;;2.60;2.40;;;21.60;99.90;;;;;;5112916;28;20627;-75
2023/06/26 03:37:23;;;;;;;3.08;2.85;;;21.60;99.90;;;;;;5100816;28;20628;-76
2023/06/26 03:39:50;;;;;;;2.70;2.50;;;21.60;99.90;;;;;;5098408;28;20221;-76
2023/06/26 03:42:18;;;;;;;2.70;2.50;;;21.60;99.90;;;;;;5095009;28;20228;-75
2023/06/26 03:44:45;;;;;;;3.20;2.90;;;21.70;99.90;;;;;;5098734;27;20196;-75
2023/06/26 03:47:12;;;;;;;2.78;2.58;;;21.60;99.90;;;;;;5096764;28;20817;-75
2023/06/26 03:49:39;;;;;;;2.85;2.65;;;21.60;99.90;;;;;;5101509;27;20300;-76
2023/06/26 03:52:07;;;;;;;2.70;2.50;;;21.60;99.90;;;;;;5109310;27;20228;-76
2023/06/26 03:54:34;;;;;;;3.20;2.67;;;21.60;99.90;;;;;;5099604;27;20972;-76
2023/06/26 03:57:01;;;;;;;2.75;2.55;;;21.60;99.90;;;;;;5099761;27;20200;-75
2023/06/26 03:59:29;;;;;;;3.03;2.83;;;21.60;99.90;;;;;;5104896;27;20244;-76
2023/06/26 04:01:56;;;;;;;2.83;2.63;;;21.60;99.90;;;;;;5098807;27;20679;-76
2023/06/26 04:04:23;;;;;;;2.70;2.50;;;21.60;99.90;;;;;;5103857;27;20648;-76
2023/06/26 04:06:50;;;;;;;3.45;2.95;;;21.60;99.90;;;;;;5106500;27;20783;-75
2023/06/26 04:09:18;;;;;;;2.65;2.45;;;21.70;99.90;;;;;;5099697;27;20328;-75
2023/06/26 04:11:46;;;;;;;2.75;2.55;;;21.70;99.90;;;;;;5100048;27;20240;-76
2023/06/26 04:14:13;;;;;;;2.90;2.70;;;21.70;99.90;;;;;;5106036;27;20211;-75
2023/06/26 04:16:41;;;;;;;3.72;2.65;;;21.80;99.90;;;;;;5095029;27;20273;-76
2023/06/26 04:19:09;;;;;;;2.55;2.25;;;21.80;99.90;;;;;;5099452;27;20297;-76
2023/06/26 04:21:37;;;;;;;5.10;3.03;;;21.90;99.90;;;;;;5101328;27;20257;-75
2023/06/26 04:24:04;;;;;;;2.47;2.10;;;21.90;99.90;;;;;;5096541;27;20311;-75
2023/06/26 04:26:31;;;;;;;2.70;2.50;;;22.00;99.90;;;;;;5103181;27;20261;-75
2023/06/26 04:28:58;;;;;;;2.58;2.38;;;22.00;99.90;;;;;;5104382;27;20873;-73
2023/06/26 04:31:25;;;;;;;2.80;2.60;;;22.10;99.90;;;;;;5098489;27;20795;-75
2023/06/26 04:33:54;;;;;;;2.78;2.33;;;22.10;99.90;;;;;;5104070;27;20249;-76
2023/06/26 04:36:21;;;;;;;2.50;2.30;;;22.10;99.90;;;;;;5107323;27;20296;-76
2023/06/26 04:38:49;;;;;;;2.60;2.40;;;22.10;99.90;;;;;;5100868;27;20232;-75
2023/06/26 04:41:16;;;;;;;2.75;2.55;;;22.00;99.90;;;;;;5098575;27;20328;-75
2023/06/26 04:43:43;;;;;;;2.58;2.38;;;22.10;99.90;;;;;;5102842;27;20288;-76
2023/06/26 04:46:10;;;;;;;2.55;2.35;;;22.10;99.90;;;;;;5097280;27;20792;-75
2023/06/26 04:48:37;;;;;;;2.78;2.58;;;22.20;99.90;;;;;;5104462;27;20296;-75
2023/06/26 04:51:05;;;;;;;2.65;2.45;;;22.20;99.90;;;;;;5108123;27;20242;-75
2023/06/26 04:53:32;;;;;;;2.78;2.58;;;22.10;99.90;;;;;;5102008;27;20828;-76
2023/06/26 04:56:01;;;;;;;3.88;3.13;;;22.20;99.90;;;;;;5102469;27;20251;-76
2023/06/26 04:58:28;;;;;;;2.88;2.67;;;22.20;99.90;;;;;;5106641;27;20205;-75
2023/06/26 05:00:55;;;;;;;3.45;2.70;;;22.30;99.90;;;;;;5105322;27;20223;-76
2023/06/26 05:03:23;;;;;;;2.90;2.70;;;22.30;99.90;;;;;;5102649;27;20859;-76
2023/06/26 05:05:50;;;;;;;2.88;2.60;;;22.40;99.90;;;;;;5101920;27;20246;-76
2023/06/26 05:08:21;;;;;;;2.38;2.25;;;22.50;99.90;;;;;;5097530;27;20316;-76
2023/06/26 05:10:48;;;;;;;2.80;2.60;;;22.60;99.90;;;;;;5100758;27;20224;-76
2023/06/26 05:13:17;;;;;;;4.65;3.30;;;22.80;99.90;;;;;;5100733;27;20232;-76
2023/06/26 05:15:44;;;;;;;6.38;3.50;;;22.90;99.90;;;;;;5100197;27;20206;-75
2023/06/26 05:18:11;;;;;;;4.53;3.30;;;23.00;99.90;;;;;;5101688;27;20205;-75
2023/06/26 05:20:39;;;;;;;4.05;2.65;;;23.10;99.90;;;;;;5097016;27;20256;-76
2023/06/26 05:23:07;;;;;;;3.83;2.90;;;23.10;99.90;;;;;;5095001;27;20280;-76
2023/06/26 05:25:36;;;;;;;3.30;3.00;;;23.00;99.90;;;;;;5101203;27;20201;-75
2023/06/26 05:28:05;;;;;;;2.83;2.63;;;22.90;99.90;;;;;;5116693;27;20243;-77
2023/06/26 05:30:34;;;;;;;3.35;3.10;;;22.90;99.90;;;;;;5100432;27;20218;-75
2023/06/26 05:33:02;;;;;;;3.30;2.88;;;23.00;99.90;;;;;;5100544;27;20284;-77
2023/06/26 05:35:30;;;;;;;3.60;3.30;;;23.10;99.90;;;;;;5095755;27;20207;-76
2023/06/26 05:37:58;;;;;;;3.25;2.97;;;23.10;99.90;;;;;;5115466;27;20193;-74
2023/06/26 05:40:26;;;;;;;3.53;3.22;;;23.10;99.90;;;;;;5119619;27;20246;-75
2023/06/26 05:42:55;;;;;;;3.53;3.22;;;23.00;99.90;;;;;;5116261;27;20203;-76
2023/06/26 05:45:22;;;;;;;3.95;3.53;;;23.10;99.90;;;;;;5098027;27;20288;-76
2023/06/26 05:47:49;;;;;;;3.92;3.03;;;23.20;99.90;;;;;;5104294;27;20277;-76
2023/06/26 05:50:19;;;;;;;3.70;3.40;;;23.40;99.90;;;;;;5097799;27;20229;-76
2023/06/26 05:52:47;;;;;;;3.40;2.95;;;23.50;99.90;;;;;;5096148;27;20296;-76
2023/06/26 05:55:15;;;;;;;3.25;3.05;;;23.50;99.90;;;;;;5094755;27;20333;-76
2023/06/26 05:57:42;;;;;;;4.10;3.70;;;23.40;99.90;;;;;;5094081;27;20228;-75
2023/06/26 06:00:12;;;;;;;3.72;3.42;;;23.30;99.90;;;;;;5099228;27;20220;-77
2023/06/26 06:02:39;;;;;;;3.70;3.40;;;23.20;99.90;;;;;;5100348;27;20205;-75
2023/06/26 06:05:07;;;;;;;4.55;3.47;;;23.20;99.90;;;;;;5095346;27;20221;-75
2023/06/26 06:07:35;;;;;;;3.70;3.40;;;23.20;99.90;;;;;;5095018;27;20304;-76
2023/06/26 06:10:02;;;;;;;3.55;3.25;;;23.20;99.90;;;;;;5094436;27;20311;-76
2023/06/26 06:12:29;;;;;;;4.07;3.72;;;23.20;99.90;;;;;;5095541;27;20227;-76
2023/06/26 06:14:57;;;;;;;3.45;3.15;;;23.30;99.90;;;;;;5094967;27;20278;-75
2023/06/26 06:17:25;;;;;;;5.45;3.40;;;23.30;99.90;;;;;;5095001;27;20630;-75
2023/06/26 06:19:52;;;;;;;4.00;3.70;;;23.50;99.90;;;;;;5095023;27;20246;-76
2023/06/26 06:22:19;;;;;;;4.22;3.53;;;23.60;99.90;;;;;;5094270;27;21162;-75
2023/06/26 06:24:46;;;;;;;3.70;3.40;;;23.70;99.90;;;;;;5097669;27;20296;-74
2023/06/26 06:27:13;;;;;;;3.65;3.35;;;23.80;99.90;;;;;;5091841;27;20197;-76
2023/06/26 06:29:40;;;;;;;4.07;3.72;;;23.90;99.90;;;;;;5094746;27;20869;-76
2023/06/26 06:32:08;;;;;;;4.07;3.78;;;23.90;99.90;;;;;;5094423;27;20292;-75
2023/06/26 06:34:36;;;;;;;4.25;3.63;;;23.90;99.90;;;;;;5095009;27;20208;-75
2023/06/26 06:37:03;;;;;;;5.68;3.63;;;24.10;99.90;;;;;;5098213;27;20284;-76
2023/06/26 06:39:30;;;;;;;3.83;3.53;;;24.30;99.90;;;;;;5093266;27;20249;-75
2023/06/26 06:41:57;;;;;;;3.72;3.42;;;24.30;99.90;;;;;;5092362;27;20225;-76
2023/06/26 06:44:24;;;;;;;3.90;3.30;;;24.40;99.90;;;;;;5100835;27;22025;-75
2023/06/26 06:46:51;;;;;;;3.95;3.65;;;24.40;99.90;;;;;;5100130;28;20239;-75
2023/06/26 06:49:18;;;;;;;4.65;3.90;;;24.40;99.90;;;;;;5094559;27;20282;-76
2023/06/26 06:51:46;;;;;;;4.50;3.75;;;24.30;99.90;;;;;;5092153;28;20317;-75
2023/06/26 06:54:13;;;;;;;4.50;4.10;;;24.40;99.90;;;;;;5096135;27;20213;-75
2023/06/26 06:56:40;;;;;;;3.70;3.40;;;24.70;99.90;;;;;;5095557;28;20265;-75
2023/06/26 06:59:07;;;;;;;3.80;3.50;;;24.90;99.90;;;;;;5096807;28;20657;-76
2023/06/26 07:01:34;;;;;;;4.03;3.60;;;25.00;99.90;;;;;;5091999;28;20201;-75
2023/06/26 07:04:03;;;;;;;8.35;4.10;;;25.20;99.90;;;;;;5095796;27;20245;-75
2023/06/26 07:06:30;;;;;;;4.10;3.70;;;25.30;99.90;;;;;;5095965;28;20206;-75
2023/06/26 07:08:59;;;;;;;5.75;4.32;;;25.40;99.90;;;;;;5095120;28;20241;-75
2023/06/26 07:11:26;;;;;;;3.88;3.58;;;25.50;99.90;;;;;;5092353;27;20265;-75
2023/06/26 07:13:52;;;;;;;5.43;4.18;;;25.60;99.90;;;;;;5092372;28;20216;-76
2023/06/26 07:16:19;;;;;;;4.35;3.95;;;25.60;99.90;;;;;;5093718;28;20304;-74
2023/06/26 07:18:46;;;;;;;6.10;4.55;;;25.60;99.90;;;;;;5100400;28;20224;-77
2023/06/26 07:21:13;;;;;;;4.03;3.70;;;25.70;99.90;;;;;;5105372;28;20210;-76
2023/06/26 07:23:40;;;;;;;3.80;3.50;;;25.70;99.90;;;;;;5090828;27;20551;-76
2023/06/26 07:26:08;;;;;;;4.10;3.70;;;25.70;99.90;;;;;;5097912;27;20287;-76
2023/06/26 07:28:35;;;;;;;3.58;3.28;;;25.90;99.90;;;;;;5097352;27;20297;-76
2023/06/26 07:31:02;;;;;;;3.47;3.17;;;26.10;99.90;;;;;;5096616;27;20219;-75
2023/06/26 07:33:29;;;;;;;3.53;3.33;;;26.20;99.90;;;;;;5097761;27;20189;-76
2023/06/26 07:35:59;;;;;;;3.67;3.33;;;26.40;99.90;;;;;;5095890;27;20233;-76
2023/06/26 07:38:26;;;;;;;4.47;4.00;;;26.60;99.90;;;;;;5095452;27;20203;-76
2023/06/26 07:40:53;;;;;;;3.92;3.63;;;26.70;99.90;;;;;;5102099;27;20571;-76
2023/06/26 07:43:22;;;;;;;4.10;3.78;;;26.60;99.90;;;;;;5101728;27;21158;-75
2023/06/26 07:45:51;;;;;;;4.25;3.85;;;26.60;99.90;;;;;;5094099;27;20204;-76
2023/06/26 07:48:18;;;;;;;4.50;4.10;;;26.60;99.90;;;;;;5093454;27;20205;-77
2023/06/26 07:50:45;;;;;;;4.20;3.80;;;26.50;99.90;;;;;;5095586;27;20295;-76
2023/06/26 07:53:12;;;;;;;4.13;3.67;;;26.60;99.90;;;;;;5094528;27;20238;-76
2023/06/26 07:55:38;;;;;;;4.55;4.00;;;26.70;99.90;;;;;;5093916;27;20233;-75
2023/06/26 07:58:05;;;;;;;4.78;3.85;;;26.70;99.90;;;;;;5092869;27;20578;-76
2023/06/26 08:00:34;;;;;;;4.25;3.55;;;26.90;99.90;;;;;;5091387;27;20322;-76
2023/06/26 08:03:01;;;;;;;4.82;3.53;;;27.20;99.90;;;;;;5090452;27;20273;-77
2023/06/26 08:05:28;;;;;;;4.25;3.90;;;27.40;99.90;;;;;;5091131;27;20198;-75
2023/06/26 08:07:55;;;;;;;5.07;4.35;;;27.40;99.90;;;;;;5095497;27;20209;-78
2023/06/26 08:10:22;;;;;;;4.40;3.97;;;27.40;99.90;;;;;;5089446;27;20319;-78
2023/06/26 08:12:50;;;;;;;4.35;3.95;;;27.50;99.90;;;;;;5085506;27;20224;-78
2023/06/26 08:15:17;;;;;;;4.05;3.75;;;27.70;99.90;;;;;;5093304;27;20194;-78
2023/06/26 08:17:46;;;;;;;4.43;4.03;;;27.80;99.90;;;;;;5094188;27;20307;-78
2023/06/26 08:20:13;;;;;;;4.20;3.72;;;27.80;99.90;;;;;;5095328;27;20226;-78
2023/06/26 08:22:41;;;;;;;3.97;3.67;;;27.70;99.90;;;;;;5096815;27;20328;-80
2023/06/26 08:25:08;;;;;;;4.72;4.15;;;27.70;99.90;;;;;;5102407;27;22985;-78
2023/06/26 08:27:35;;;;;;;4.18;3.88;;;27.90;99.90;;;;;;5099794;27;20283;-78
2023/06/26 08:30:02;;;;;;;5.63;3.78;;;27.90;99.90;;;;;;5099591;27;20299;-80
2023/06/26 08:32:29;;;;;;;3.95;3.60;;;27.80;99.90;;;;;;5105005;27;20197;-79
2023/06/26 08:34:58;;;;;;;3.95;3.65;;;28.00;99.90;;;;;;5099027;27;20260;-78
2023/06/26 08:37:25;;;;;;;3.97;3.67;;;28.10;99.90;;;;;;5097639;27;20211;-78
2023/06/26 08:39:52;;;;;;;4.53;4.13;;;28.20;99.90;;;;;;5097132;27;20248;-77
2023/06/26 08:42:19;;;;;;;4.28;3.97;;;28.40;99.90;;;;;;5093520;27;21215;-76
2023/06/26 08:44:46;;;;;;;3.90;3.60;;;28.50;99.90;;;;;;5097663;27;20572;-77
2023/06/26 08:47:13;;;;;;;4.53;4.13;;;28.50;99.90;;;;;;5098363;27;20253;-76
2023/06/26 08:49:47;;;;;;;4.63;4.10;;;28.50;99.90;;;;;;5098545;27;20227;-77
2023/06/26 08:52:20;;;;;;;4.05;3.65;;;28.60;99.90;;;;;;5103801;27;20217;-78
2023/06/26 08:54:52;;;;;;;3.85;3.55;;;28.70;99.90;;;;;;5102321;27;20254;-79
2023/06/26 08:57:20;;;;;;;5.60;3.97;;;28.80;99.90;;;;;;5100864;27;20988;-78
2023/06/26 08:59:48;;;;;;;4.45;4.05;;;28.80;99.90;;;;;;5094038;27;20224;-79
2023/06/26 09:02:15;;;;;;;4.43;4.03;;;28.80;99.90;;;;;;5099238;27;20200;-78
2023/06/26 09:04:42;;;;;;;4.13;3.80;;;28.80;99.90;;;;;;5096961;27;20252;-78
2023/06/26 09:07:09;;;;;;;4.30;3.90;;;28.90;99.90;;;;;;5099425;27;20738;-78
2023/06/26 09:09:38;;;;;;;4.40;4.00;;;29.00;99.90;;;;;;5106804;27;20314;-78
2023/06/26 09:12:06;;;;;;;4.35;3.50;;;29.10;99.90;;;;;;5106915;27;20224;-79
2023/06/26 09:14:33;;;;;;;4.28;3.95;;;29.10;99.90;;;;;;5097507;27;20193;-77
2023/06/26 09:17:00;;;;;;;3.97;3.65;;;29.20;99.90;;;;;;5094751;27;20224;-77
2023/06/26 09:19:27;;;;;;;4.55;4.15;;;29.10;99.90;;;;;;5093061;27;20672;-77
2023/06/26 09:21:55;;;;;;;3.70;3.40;;;29.10;99.90;;;;;;5107405;27;20197;-80
2023/06/26 09:24:23;;;;;;;3.70;3.40;;;29.20;99.90;;;;;;5114424;27;20205;-79
2023/06/26 09:26:52;;;;;;;4.32;4.00;;;29.30;99.90;;;;;;5116196;27;20763;-79
2023/06/26 09:29:20;;;;;;;4.15;3.75;;;29.30;99.90;;;;;;5102908;27;20613;-78
2023/06/26 09:31:47;;;;;;;3.72;3.42;;;29.30;99.90;;;;;;5094812;27;20205;-79
2023/06/26 09:34:14;;;;;;;4.03;3.72;;;29.50;99.90;;;;;;5098658;27;20201;-78
2023/06/26 09:36:46;;;;;;;3.55;3.25;;;29.70;99.90;;;;;;5101503;27;20796;-78
2023/06/26 09:39:14;;;;;;;4.10;3.80;;;29.60;99.90;;;;;;5096544;27;20301;-78
2023/06/26 09:41:42;;;;;;;4.40;4.00;;;29.70;99.90;;;;;;5091855;27;20202;-78
2023/06/26 09:44:13;;;;;;;4.15;3.75;;;29.70;99.90;;;;;;5098929;27;20201;-78
2023/06/26 09:46:40;;;;;;;4.05;3.67;;;29.80;99.90;;;;;;5092923;27;20391;-77
2023/06/26 09:49:08;;;;;;;3.45;3.15;;;29.80;99.90;;;;;;5092622;27;20231;-78
2023/06/26 09:51:36;;;;;;;3.95;3.50;;;29.90;99.90;;;;;;5100550;27;20266;-79
2023/06/26 09:54:05;;;;;;;5.68;3.80;;;30.10;99.90;;;;;;5095926;27;20201;-78
2023/06/26 09:56:33;;;;;;;3.63;3.10;;;30.10;99.90;;;;;;5095281;27;20201;-77
2023/06/26 09:59:02;;;;;;;4.07;3.65;;;30.00;99.90;;;;;;5094067;27;20569;-78
2023/06/26 10:01:31;;;;;;;3.95;3.20;;;30.20;99.90;;;;;;5095924;27;20236;-78
2023/06/26 10:03:58;;;;;;;3.75;3.45;;;30.20;99.90;;;;;;5096112;27;20208;-77
2023/06/26 10:06:32;;;;;;;3.80;3.50;;;30.30;99.90;;;;;;5095283;27;20204;-77
2023/06/26 10:09:01;;;;;;;3.75;3.35;;;30.50;99.90;;;;;;5092824;27;20216;-78
2023/06/26 10:11:35;;;;;;;3.60;3.40;;;30.80;99.90;;;;;;5095147;27;20197;-78
2023/06/26 10:14:05;;;;;;;4.00;3.38;;;30.90;99.90;;;;;;5101350;27;20286;-78
2023/06/26 10:16:35;;;;;;;4.05;3.65;;;30.90;99.90;;;;;;5100196;27;20284;-78
2023/06/26 10:19:06;;;;;;;4.00;3.70;;;31.10;99.90;;;;;;5102895;27;20210;-79
2023/06/26 10:21:38;;;;;;;3.80;3.50;;;30.90;99.90;;;;;;5100308;27;20205;-77
2023/06/26 10:24:07;;;;;;;3.58;3.28;;;30.60;99.90;;;;;;5099059;27;20201;-77
2023/06/26 10:26:37;;;;;;;3.40;3.10;;;30.60;99.90;;;;;;5106080;27;20277;-79
2023/06/26 10:29:06;;;;;;;4.13;3.72;;;30.80;99.90;;;;;;5098703;27;20293;-78
2023/06/26 10:31:34;;;;;;;3.83;3.53;;;30.80;99.90;;;;;;5094628;27;20659;-77
2023/06/26 10:34:02;;;;;;;4.07;3.67;;;30.90;99.90;;;;;;5106913;27;20250;-78
2023/06/26 10:36:31;;;;;;;4.70;3.60;;;30.90;99.90;;;;;;5098107;27;20262;-79
2023/06/26 10:39:04;;;;;;;3.75;3.45;;;30.80;99.90;;;;;;5098741;27;20244;-77
2023/06/26 10:41:38;;;;;;;3.70;3.40;;;30.60;99.90;;;;;;5098501;27;20682;-77
2023/06/26 10:44:12;;;;;;;5.10;3.92;;;30.90;99.90;;;;;;5099874;27;20196;-79
2023/06/26 10:46:53;;;;;;;4.13;3.83;;;31.10;99.90;;;;;;5098286;28;20292;-77
2023/06/26 10:49:21;;;;;;;3.63;3.33;;;31.10;99.90;;;;;;5098618;28;20248;-77
2023/06/26 10:51:49;;;;;;;4.18;3.80;;;31.20;99.90;;;;;;5100356;28;20295;-77
2023/06/26 10:54:17;;;;;;;3.53;3.33;;;31.30;99.90;;;;;;5097056;28;20305;-77
2023/06/26 10:56:45;;;;;;;3.67;3.22;;;31.40;99.90;;;;;;5097430;27;20250;-77
2023/06/26 10:59:17;;;;;;;3.63;3.33;;;31.40;99.90;;;;;;5114866;28;20252;-79
2023/06/26 11:01:45;;;;;;;3.30;3.00;;;31.50;99.90;;;;;;5105358;28;20207;-77
2023/06/26 11:04:16;;;;;;;3.72;3.42;;;31.60;99.90;;;;;;5100816;28;20246;-78
2023/06/26 11:06:48;;;;;;;3.55;3.25;;;31.60;99.90;;;;;;5097920;28;20209;-79
2023/06/26 11:09:24;;;;;;;3.60;3.30;;;31.60;99.90;;;;;;5101216;28;20224;-79
2023/06/26 11:12:04;;;;;;;4.15;3.78;;;31.70;99.90;;;;;;5100690;28;20295;-77
2023/06/26 11:14:32;;;;;;;3.35;3.08;;;32.20;99.90;;;;;;5096530;28;20196;-77
2023/06/26 11:17:00;;;;;;;3.85;3.55;;;32.20;99.90;;;;;;5098800;27;21068;-78
2023/06/26 11:19:29;;;;;;;3.75;3.40;;;32.20;99.90;;;;;;5094403;27;20304;-82
2023/06/26 11:22:00;;;;;;;3.58;3.22;;;32.30;99.90;;;;;;5096615;28;20323;-78
2023/06/26 11:24:28;;;;;;;3.75;3.45;;;32.50;99.90;;;;;;5100107;28;20908;-78
2023/06/26 11:27:00;;;;;;;4.28;3.60;;;32.60;99.90;;;;;;5098638;28;20262;-75
2023/06/26 11:29:27;;;;;;;3.60;3.30;;;32.70;99.90;;;;;;5097557;28;20292;-77
2023/06/26 11:32:00;;;;;;;3.55;3.25;;;32.50;99.90;;;;;;5098293;28;20943;-78
2023/06/26 11:34:31;;;;;;;4.13;3.65;;;32.50;99.90;;;;;;5095544;28;20201;-78
2023/06/26 11:36:58;;;;;;;5.00;3.40;;;32.30;99.90;;;;;;5091451;28;20208;-76
2023/06/26 11:39:25;;;;;;;5.47;3.92;;;32.40;99.90;;;;;;5092574;28;20982;-75
2023/06/26 11:41:52;;;;;;;7.60;3.50;;;32.50;99.90;;;;;;5092613;28;20196;-76
2023/06/26 11:44:20;;;;;;;3.53;3.22;;;32.50;99.90;;;;;;5094417;28;20279;-77
2023/06/26 11:46:48;;;;;;;3.50;3.20;;;32.40;99.90;;;;;;5094704;28;21036;-78
2023/06/26 11:49:17;;;;;;;4.03;3.72;;;32.50;99.90;;;;;;5092893;28;20289;-78
2023/06/26 11:51:47;;;;;;;3.53;2.80;;;32.50;99.90;;;;;;5092928;28;20220;-77
2023/06/26 11:54:14;;;;;;;3.53;3.22;;;32.60;99.90;;;;;;5095710;28;20825;-80
2023/06/26 11:56:41;;;;;;;3.50;3.20;;;32.80;99.90;;;;;;5092107;28;20198;-78
2023/06/26 11:59:10;;;;;;;3.83;3.53;;;32.90;99.90;;;;;;5092943;28;20711;-81
2023/06/26 12:01:38;;;;;;;4.55;3.47;;;33.00;99.90;;;;;;5091888;28;20677;-79
2023/06/26 12:04:08;;;;;;;3.85;3.53;;;32.90;99.90;;;;;;5089998;28;20205;-79
2023/06/26 12:06:36;;;;;;;3.50;3.20;;;33.20;99.90;;;;;;5097874;28;20265;-81
2023/06/26 12:09:08;;;;;;;3.40;3.10;;;33.20;99.90;;;;;;5097168;27;20280;-78
2023/06/26 12:11:37;;;;;;;4.47;3.28;;;33.20;99.90;;;;;;5098062;27;20225;-80
2023/06/26 12:14:06;;;;;;;3.67;3.38;;;33.30;99.90;;;;;;5097560;27;20225;-79
2023/06/26 12:16:34;;;;;;;3.72;3.30;;;33.30;99.90;;;;;;5101685;27;20233;-79
2023/06/26 12:19:02;;;;;;;3.10;2.90;;;33.20;99.40;;;;;;5095779;27;20219;-80
2023/06/26 12:21:30;;;;;;;3.05;2.85;;;33.20;99.40;;;;;;5097537;27;20217;-80
2023/06/26 12:24:00;;;;;;;3.60;3.30;;;33.20;98.30;;;;;;5095322;27;20724;-79
2023/06/26 12:26:29;;;;;;;3.25;2.95;;;33.40;98.60;;;;;;5105217;27;20225;-80
2023/06/26 12:29:03;;;;;;;3.30;3.00;;;33.50;99.00;;;;;;5095785;27;20237;-79
2023/06/26 12:31:30;;;;;;;2.92;2.67;;;33.50;97.70;;;;;;5099960;27;20706;-78
2023/06/26 12:33:57;;;;;;;3.45;3.15;;;33.50;96.20;;;;;;5095546;27;20197;-78
2023/06/26 12:36:24;;;;;;;2.95;2.75;;;33.60;95.90;;;;;;5097832;27;20766;-79
2023/06/26 12:38:53;;;;;;;3.15;2.75;;;33.70;95.40;;;;;;5096386;27;20270;-80
2023/06/26 12:41:21;;;;;;;2.90;2.70;;;33.80;96.10;;;;;;5096398;27;20193;-80
2023/06/26 12:43:50;;;;;;;3.35;2.58;;;34.00;95.10;;;;;;5098772;27;20235;-78
2023/06/26 12:46:17;;;;;;;2.92;2.70;;;34.00;92.80;;;;;;5101367;27;20281;-78
2023/06/26 12:48:46;;;;;;;3.28;3.00;;;34.00;92.70;;;;;;5096926;27;20849;-77
2023/06/26 12:51:14;;;;;;;2.72;2.53;;;34.00;92.70;;;;;;5100216;27;20305;-77
2023/06/26 12:53:41;;;;;;;3.15;2.85;;;34.00;91.70;;;;;;5091979;27;20209;-77